Girolata — FPOD — position and weather

sailwx.info

Track history (hours):
 
Tides and Currents Weather Stations Pressure Air Temp Water Temp Dewpoint Dewpoint Depression Visibility Wind Speed Wind Dir Waves Ship Positions

Girolata

Last reported at 2019-Feb-23 08:13 UTC. Time now 2019-Feb-23 16:42 UTC.
Position N 41°55' E 008°45'.

Length 177 m; beam 27 m.

Type: Passenger vessel. MMSI: 226245000.

Date/timePositionNaut miles runAvg speedWind from/ knotsBaromVisibWave heightAir tempDewpointWater temp
2019-Feb-23 08:13N 41°55' E 008°45'0 0.0
2019-Feb-23 07:59N 41°55' E 008°45'0 0.0
2019-Feb-23 07:30N 41°55' E 008°45'0 0.0
2019-Feb-23 06:06N 41°55' E 008°45'0 0.0
2019-Feb-23 05:37N 41°55' E 008°45'0 0.5
2019-Feb-23 05:27N 41°55' E 008°45'3 6.4
2019-Feb-23 05:00N 41°53' E 008°43'816.2
2019-Feb-23 04:30N 41°49' E 008°34'816.7
2019-Feb-23 04:00N 41°53' E 008°23'917.0
2019-Feb-23 03:30N 41°57' E 008°13'917.5
2019-Feb-23 03:00N 42°01' E 008°03'1817.4
2019-Feb-23 01:58N 42°10' E 007°42'1118.3
2019-Feb-23 01:22N 42°16' E 007°29'618.1
2019-Feb-23 01:00N 42°19' E 007°21'918.1
2019-Feb-23 00:30N 42°23' E 007°10'918.1
2019-Feb-23 00:00N 42°28' E 006°60'918.7
2019-Feb-22 23:30N 42°32' E 006°49'1020.3
2019-Feb-22 23:00N 42°38' E 006°37'1020.0
2019-Feb-22 22:30N 42°43' E 006°25'1020.0
2019-Feb-22 22:00N 42°47' E 006°13'1019.7
2019-Feb-22 21:28N 42°52' E 006°01'1020.3
2019-Feb-22 21:00N 42°57' E 005°49'2820.0
2019-Feb-22 19:37N 43°13' E 005°18'218.8
2019-Feb-22 19:30N 43°15' E 005°19'4 0.3
2019-Feb-22 05:34N 43°18' E 005°22'0 6.0
2019-Feb-22 05:30N 43°18' E 005°22'510.4
2019-Feb-22 05:00N 43°14' E 005°18'9117.8
2019-Feb-21 23:53N 42°26' E 007°04'718.6
2019-Feb-21 23:30N 42°23' E 007°13'1518.0
2019-Feb-21 22:40N 42°15' E 007°30'317.4
2019-Feb-21 22:30N 42°14' E 007°33'2317.9
2019-Feb-21 21:14N 42°02' E 008°00'419.7
2019-Feb-21 21:00N 42°00' E 008°06'1019.6
2019-Feb-21 20:30N 41°56' E 008°17'1020.4
2019-Feb-21 20:00N 41°51' E 008°29'8 0.7
2019-Feb-21 08:46N 41°51' E 008°40'519.3
2019-Feb-21 08:29N 41°50' E 008°33'1020.3
2019-Feb-21 08:00N 41°54' E 008°21'1020.9
2019-Feb-21 07:31N 41°59' E 008°09'3920.7
2019-Feb-21 05:37N 42°18' E 007°23'220.4
2019-Feb-21 05:30N 42°19' E 007°21'1720.6
2019-Feb-21 04:41N 42°28' E 007°01'420.9
2019-Feb-21 04:30N 42°30' E 006°56'1620.7
2019-Feb-21 03:43N 42°40' E 006°38'27 8.1
2019-Feb-21 00:26N 42°24' E 007°08'9320.1
2019-Feb-20 19:46N 43°12' E 005°19'518.3
2019-Feb-20 19:30N 43°17' E 005°20'2 0.6
2019-Feb-20 15:52N 43°19' E 005°22'0 0.0
2019-Feb-20 15:22N 43°19' E 005°22'0 0.0
2019-Feb-20 05:42N 43°19' E 005°22'0 2.3
2019-Feb-20 05:30N 43°18' E 005°22'510.5
2019-Feb-20 05:00N 43°14' E 005°18'9117.6
2019-Feb-19 23:48N 42°26' E 007°05'5618.5
2019-Feb-19 20:46N 41°58' E 008°10'620.4
2019-Feb-19 20:28N 41°56' E 008°17'1320.2
2019-Feb-19 19:49N 41°50' E 008°33'29 1.8
2019-Feb-19 03:15N 42°03' E 007°58'1320.4
2019-Feb-19 02:36N 42°10' E 007°43'1420.8
2019-Feb-19 01:56N 42°17' E 007°26'920.7
2019-Feb-19 01:30N 42°21' E 007°16'10020.4
2019-Feb-18 20:36N 43°12' E 005°18'219.8
2019-Feb-18 20:30N 43°14' E 005°18'5 0.4
2019-Feb-18 08:07N 43°19' E 005°22'0 0.0
2019-Feb-18 06:48N 43°19' E 005°22'0 0.0
2019-Feb-18 06:28N 43°19' E 005°22'0 0.0
2019-Feb-18 05:56N 43°19' E 005°22'1 1.5
2019-Feb-18 05:29N 43°18' E 005°22'5 9.8
2019-Feb-18 05:00N 43°14' E 005°18'11617.5
2019-Feb-17 22:21N 42°14' E 007°33'720.6
2019-Feb-17 22:00N 42°10' E 007°42'1120.8
2019-Feb-17 21:27N 42°05' E 007°55'1120.8
2019-Feb-17 20:57N 41°59' E 008°07'1120.6
2019-Feb-17 20:26N 41°54' E 008°20'819.6
2019-Feb-17 20:00N 41°51' E 008°30'12 4.3
2019-Feb-17 17:12N 41°56' E 008°45'0 0.0
2019-Feb-17 17:00N 41°56' E 008°45'0 0.0
2019-Feb-17 16:30N 41°56' E 008°45'0 0.0
2019-Feb-17 15:39N 41°56' E 008°45'0 0.0
2019-Feb-17 15:21N 41°56' E 008°45'0 0.0
2019-Feb-17 15:00N 41°56' E 008°45'0 0.0
2019-Feb-17 14:30N 41°56' E 008°45'0 0.0
2019-Feb-17 11:51N 41°56' E 008°45'0 0.0
2019-Feb-17 11:30N 41°56' E 008°45'0 0.0
2019-Feb-17 06:42N 41°56' E 008°45'0 0.9
2019-Feb-17 06:30N 41°55' E 008°45'510.6
2019-Feb-17 06:00N 41°51' E 008°40'815.8
2019-Feb-17 05:30N 41°50' E 008°30'816.9
2019-Feb-17 05:00N 41°54' E 008°20'816.5
2019-Feb-17 04:30N 41°58' E 008°11'1116.4
2019-Feb-17 03:50N 42°04' E 007°58'616.2
2019-Feb-17 03:30N 42°06' E 007°52'816.5
2019-Feb-17 03:00N 42°10' E 007°42'816.9
2019-Feb-17 02:30N 42°14' E 007°32'816.8
2019-Feb-17 02:00N 42°19' E 007°22'917.4
2019-Feb-17 01:30N 42°23' E 007°12'816.8
2019-Feb-17 01:00N 42°27' E 007°02'816.8
2019-Feb-17 00:30N 42°31' E 006°52'916.9
2019-Feb-16 23:58N 42°35' E 006°41'817.0
2019-Feb-16 23:30N 42°39' E 006°32'816.8
2019-Feb-16 23:00N 42°43' E 006°22'1216.8
2019-Feb-16 22:16N 42°49' E 006°07'516.9
2019-Feb-16 21:59N 42°52' E 006°02'3716.5
2019-Feb-16 19:42N 43°12' E 005°18'315.7
2019-Feb-16 19:30N 43°15' E 005°19'4 5.8
2019-Feb-16 18:48N 43°19' E 005°22'0 0.0
2019-Feb-16 17:12N 43°19' E 005°22'0 0.0
2019-Feb-16 05:42N 43°19' E 005°22'0 1.7
2019-Feb-16 05:30N 43°18' E 005°22'510.4
2019-Feb-16 05:00N 43°14' E 005°18'4017.1
2019-Feb-16 02:42N 42°53' E 006°04'317.8
2019-Feb-16 02:30N 42°51' E 006°07'2317.4
2019-Feb-16 01:10N 42°39' E 006°34'717.3
2019-Feb-16 00:47N 42°35' E 006°42'519.3
2019-Feb-16 00:30N 42°33' E 006°49'919.0
2019-Feb-16 00:00N 42°28' E 007°00'918.9
2019-Feb-15 23:30N 42°24' E 007°11'918.8
2019-Feb-15 23:00N 42°19' E 007°22'918.8
2019-Feb-15 22:30N 42°14' E 007°33'918.9
2019-Feb-15 22:00N 42°09' E 007°44'918.9
2019-Feb-15 21:30N 42°05' E 007°55'919.0
2019-Feb-15 21:00N 41°60' E 008°06'1019.1
2019-Feb-15 20:30N 41°55' E 008°17'1119.0
2019-Feb-15 19:57N 41°50' E 008°30'817.1
2019-Feb-15 19:29N 41°51' E 008°41'510.5
2019-Feb-15 18:59N 41°56' E 008°45'0 0.0
2019-Feb-15 18:26N 41°56' E 008°45'0 0.0
2019-Feb-15 17:53N 41°56' E 008°45'0 0.0
2019-Feb-15 17:29N 41°56' E 008°45'0 0.0
2019-Feb-15 16:41N 41°56' E 008°45'0 0.0
2019-Feb-15 16:23N 41°56' E 008°45'0 0.0
2019-Feb-15 15:59N 41°56' E 008°45'0 0.0
2019-Feb-15 14:35N 41°56' E 008°45'0 0.0
2019-Feb-15 14:17N 41°56' E 008°45'0 0.0
2019-Feb-15 13:59N 41°56' E 008°45'0 0.0
2019-Feb-15 13:29N 41°56' E 008°45'0 0.0
2019-Feb-15 12:50N 41°56' E 008°45'0 0.0
2019-Feb-15 12:29N 41°56' E 008°45'0 0.0
2019-Feb-15 11:59N 41°56' E 008°45'0 0.0
2019-Feb-15 11:20N 41°56' E 008°45'0 0.0
2019-Feb-15 10:59N 41°56' E 008°45'0 0.0
2019-Feb-15 10:29N 41°56' E 008°45'0 0.0
2019-Feb-15 09:59N 41°56' E 008°45'0 0.0
2019-Feb-15 08:23N 41°56' E 008°45'0 0.0
2019-Feb-15 07:59N 41°56' E 008°45'0 0.0
2019-Feb-15 07:29N 41°56' E 008°45'0 0.0
2019-Feb-15 06:59N 41°56' E 008°45'0 0.0
2019-Feb-15 06:26N 41°56' E 008°45'0 0.0
2019-Feb-15 05:48N 41°56' E 008°45'0 0.0
2019-Feb-15 05:30N 41°56' E 008°45'3 6.2
2019-Feb-15 05:01N 41°53' E 008°43'816.5
2019-Feb-15 04:31N 41°49' E 008°33'917.3
2019-Feb-15 04:00N 41°53' E 008°22'917.8
2019-Feb-15 03:30N 41°58' E 008°12'917.9
2019-Feb-15 03:01N 42°02' E 008°02'918.0
2019-Feb-15 02:31N 42°06' E 007°51'918.1
2019-Feb-15 02:01N 42°11' E 007°40'918.3
2019-Feb-15 01:31N 42°15' E 007°29'918.3
2019-Feb-15 01:01N 42°20' E 007°19'1018.3
2019-Feb-15 00:27N 42°25' E 007°07'818.3
2019-Feb-15 00:00N 42°29' E 006°57'918.3
2019-Feb-14 23:31N 42°33' E 006°46'1019.2
2019-Feb-14 23:01N 42°38' E 006°35'1019.6
2019-Feb-14 22:31N 42°43' E 006°24'1019.3
2019-Feb-14 22:00N 42°48' E 006°12'1019.1
2019-Feb-14 21:31N 42°52' E 006°01'3719.3
2019-Feb-14 19:36N 43°12' E 005°18'115.7
2019-Feb-14 19:30N 43°14' E 005°18'6 6.3
2019-Feb-14 18:37N 43°19' E 005°22'0 0.0
2019-Feb-14 06:37N 43°19' E 005°22'0 0.0
2019-Feb-14 06:06N 43°19' E 005°22'0 0.0
2019-Feb-14 05:58N 43°19' E 005°22'0 0.4
2019-Feb-14 05:30N 43°19' E 005°22'5 9.7
2019-Feb-14 05:00N 43°14' E 005°18'9517.7
2019-Feb-13 23:37N 42°24' E 007°08'217.4
2019-Feb-13 23:30N 42°23' E 007°11'917.7
2019-Feb-13 22:59N 42°18' E 007°22'918.3
2019-Feb-13 22:30N 42°14' E 007°32'918.1
2019-Feb-13 22:00N 42°10' E 007°43'918.2
2019-Feb-13 21:30N 42°05' E 007°53'918.4
2019-Feb-13 21:00N 42°01' E 008°04'918.3
2019-Feb-13 20:30N 41°56' E 008°15'918.6
2019-Feb-13 20:00N 41°52' E 008°26'917.9
2019-Feb-13 19:30N 41°49' E 008°37'  
Track history (hours):
 
Tides and Currents Weather Stations Pressure Air Temp Water Temp Dewpoint Dewpoint Depression Visibility Wind Speed Wind Dir Waves Ship Positions

Girolata

Last reported at 2019-Feb-23 08:13 UTC. Time now 2019-Feb-23 16:42 UTC.
Position N 41°55' E 008°45'.

Length 177 m; beam 27 m.

Type: Passenger vessel. MMSI: 226245000.

Date/timePositionNaut miles runAvg speedWind from/ knotsBaromVisibWave heightAir tempDewpointWater temp
2019-Feb-23 08:13N 41°55' E 008°45'0 0.0
2019-Feb-23 07:59N 41°55' E 008°45'0 0.0
2019-Feb-23 07:30N 41°55' E 008°45'0 0.0
2019-Feb-23 06:06N 41°55' E 008°45'0 0.0
2019-Feb-23 05:37N 41°55' E 008°45'0 0.5
2019-Feb-23 05:27N 41°55' E 008°45'3 6.4
2019-Feb-23 05:00N 41°53' E 008°43'816.2
2019-Feb-23 04:30N 41°49' E 008°34'816.7
2019-Feb-23 04:00N 41°53' E 008°23'917.0
2019-Feb-23 03:30N 41°57' E 008°13'917.5
2019-Feb-23 03:00N 42°01' E 008°03'1817.4
2019-Feb-23 01:58N 42°10' E 007°42'1118.3
2019-Feb-23 01:22N 42°16' E 007°29'618.1
2019-Feb-23 01:00N 42°19' E 007°21'918.1
2019-Feb-23 00:30N 42°23' E 007°10'918.1
2019-Feb-23 00:00N 42°28' E 006°60'918.7
2019-Feb-22 23:30N 42°32' E 006°49'1020.3
2019-Feb-22 23:00N 42°38' E 006°37'1020.0
2019-Feb-22 22:30N 42°43' E 006°25'1020.0
2019-Feb-22 22:00N 42°47' E 006°13'1019.7
2019-Feb-22 21:28N 42°52' E 006°01'1020.3
2019-Feb-22 21:00N 42°57' E 005°49'2820.0
2019-Feb-22 19:37N 43°13' E 005°18'218.8
2019-Feb-22 19:30N 43°15' E 005°19'4 0.3
2019-Feb-22 05:34N 43°18' E 005°22'0 6.0
2019-Feb-22 05:30N 43°18' E 005°22'510.4
2019-Feb-22 05:00N 43°14' E 005°18'9117.8
2019-Feb-21 23:53N 42°26' E 007°04'718.6
2019-Feb-21 23:30N 42°23' E 007°13'1518.0
2019-Feb-21 22:40N 42°15' E 007°30'317.4
2019-Feb-21 22:30N 42°14' E 007°33'2317.9
2019-Feb-21 21:14N 42°02' E 008°00'419.7
2019-Feb-21 21:00N 42°00' E 008°06'1019.6
2019-Feb-21 20:30N 41°56' E 008°17'1020.4
2019-Feb-21 20:00N 41°51' E 008°29'8 0.7
2019-Feb-21 08:46N 41°51' E 008°40'519.3
2019-Feb-21 08:29N 41°50' E 008°33'1020.3
2019-Feb-21 08:00N 41°54' E 008°21'1020.9
2019-Feb-21 07:31N 41°59' E 008°09'3920.7
2019-Feb-21 05:37N 42°18' E 007°23'220.4
2019-Feb-21 05:30N 42°19' E 007°21'1720.6
2019-Feb-21 04:41N 42°28' E 007°01'420.9
2019-Feb-21 04:30N 42°30' E 006°56'1620.7
2019-Feb-21 03:43N 42°40' E 006°38'27 8.1
2019-Feb-21 00:26N 42°24' E 007°08'9320.1
2019-Feb-20 19:46N 43°12' E 005°19'518.3
2019-Feb-20 19:30N 43°17' E 005°20'2 0.6
2019-Feb-20 15:52N 43°19' E 005°22'0 0.0
2019-Feb-20 15:22N 43°19' E 005°22'0 0.0
2019-Feb-20 05:42N 43°19' E 005°22'0 2.3
2019-Feb-20 05:30N 43°18' E 005°22'510.5
2019-Feb-20 05:00N 43°14' E 005°18'9117.6
2019-Feb-19 23:48N 42°26' E 007°05'5618.5
2019-Feb-19 20:46N 41°58' E 008°10'620.4
2019-Feb-19 20:28N 41°56' E 008°17'1320.2
2019-Feb-19 19:49N 41°50' E 008°33'29 1.8
2019-Feb-19 03:15N 42°03' E 007°58'1320.4
2019-Feb-19 02:36N 42°10' E 007°43'1420.8
2019-Feb-19 01:56N 42°17' E 007°26'920.7
2019-Feb-19 01:30N 42°21' E 007°16'10020.4
2019-Feb-18 20:36N 43°12' E 005°18'219.8
2019-Feb-18 20:30N 43°14' E 005°18'5 0.4
2019-Feb-18 08:07N 43°19' E 005°22'0 0.0
2019-Feb-18 06:48N 43°19' E 005°22'0 0.0
2019-Feb-18 06:28N 43°19' E 005°22'0 0.0
2019-Feb-18 05:56N 43°19' E 005°22'1 1.5
2019-Feb-18 05:29N 43°18' E 005°22'5 9.8
2019-Feb-18 05:00N 43°14' E 005°18'11617.5
2019-Feb-17 22:21N 42°14' E 007°33'720.6
2019-Feb-17 22:00N 42°10' E 007°42'1120.8
2019-Feb-17 21:27N 42°05' E 007°55'1120.8
2019-Feb-17 20:57N 41°59' E 008°07'1120.6
2019-Feb-17 20:26N 41°54' E 008°20'819.6
2019-Feb-17 20:00N 41°51' E 008°30'12 4.3
2019-Feb-17 17:12N 41°56' E 008°45'0 0.0
2019-Feb-17 17:00N 41°56' E 008°45'0 0.0
2019-Feb-17 16:30N 41°56' E 008°45'0 0.0
2019-Feb-17 15:39N 41°56' E 008°45'0 0.0
2019-Feb-17 15:21N 41°56' E 008°45'0 0.0
2019-Feb-17 15:00N 41°56' E 008°45'0 0.0
2019-Feb-17 14:30N 41°56' E 008°45'0 0.0
2019-Feb-17 11:51N 41°56' E 008°45'0 0.0
2019-Feb-17 11:30N 41°56' E 008°45'0 0.0
2019-Feb-17 06:42N 41°56' E 008°45'0 0.9
2019-Feb-17 06:30N 41°55' E 008°45'510.6
2019-Feb-17 06:00N 41°51' E 008°40'815.8
2019-Feb-17 05:30N 41°50' E 008°30'816.9
2019-Feb-17 05:00N 41°54' E 008°20'816.5
2019-Feb-17 04:30N 41°58' E 008°11'1116.4
2019-Feb-17 03:50N 42°04' E 007°58'616.2
2019-Feb-17 03:30N 42°06' E 007°52'816.5
2019-Feb-17 03:00N 42°10' E 007°42'816.9
2019-Feb-17 02:30N 42°14' E 007°32'816.8
2019-Feb-17 02:00N 42°19' E 007°22'917.4
2019-Feb-17 01:30N 42°23' E 007°12'816.8
2019-Feb-17 01:00N 42°27' E 007°02'816.8
2019-Feb-17 00:30N 42°31' E 006°52'916.9
2019-Feb-16 23:58N 42°35' E 006°41'817.0
2019-Feb-16 23:30N 42°39' E 006°32'816.8
2019-Feb-16 23:00N 42°43' E 006°22'1216.8
2019-Feb-16 22:16N 42°49' E 006°07'516.9
2019-Feb-16 21:59N 42°52' E 006°02'3716.5
2019-Feb-16 19:42N 43°12' E 005°18'315.7
2019-Feb-16 19:30N 43°15' E 005°19'4 5.8
2019-Feb-16 18:48N 43°19' E 005°22'0 0.0
2019-Feb-16 17:12N 43°19' E 005°22'0 0.0
2019-Feb-16 05:42N 43°19' E 005°22'0 1.7
2019-Feb-16 05:30N 43°18' E 005°22'510.4
2019-Feb-16 05:00N 43°14' E 005°18'4017.1
2019-Feb-16 02:42N 42°53' E 006°04'317.8
2019-Feb-16 02:30N 42°51' E 006°07'2317.4
2019-Feb-16 01:10N 42°39' E 006°34'717.3
2019-Feb-16 00:47N 42°35' E 006°42'519.3
2019-Feb-16 00:30N 42°33' E 006°49'919.0
2019-Feb-16 00:00N 42°28' E 007°00'918.9
2019-Feb-15 23:30N 42°24' E 007°11'918.8
2019-Feb-15 23:00N 42°19' E 007°22'918.8
2019-Feb-15 22:30N 42°14' E 007°33'918.9
2019-Feb-15 22:00N 42°09' E 007°44'918.9
2019-Feb-15 21:30N 42°05' E 007°55'919.0
2019-Feb-15 21:00N 41°60' E 008°06'1019.1
2019-Feb-15 20:30N 41°55' E 008°17'1119.0
2019-Feb-15 19:57N 41°50' E 008°30'817.1
2019-Feb-15 19:29N 41°51' E 008°41'510.5
2019-Feb-15 18:59N 41°56' E 008°45'0 0.0
2019-Feb-15 18:26N 41°56' E 008°45'0 0.0
2019-Feb-15 17:53N 41°56' E 008°45'0 0.0
2019-Feb-15 17:29N 41°56' E 008°45'0 0.0
2019-Feb-15 16:41N 41°56' E 008°45'0 0.0
2019-Feb-15 16:23N 41°56' E 008°45'0 0.0
2019-Feb-15 15:59N 41°56' E 008°45'0 0.0
2019-Feb-15 14:35N 41°56' E 008°45'0 0.0
2019-Feb-15 14:17N 41°56' E 008°45'0 0.0
2019-Feb-15 13:59N 41°56' E 008°45'0 0.0
2019-Feb-15 13:29N 41°56' E 008°45'0 0.0
2019-Feb-15 12:50N 41°56' E 008°45'0 0.0
2019-Feb-15 12:29N 41°56' E 008°45'0 0.0
2019-Feb-15 11:59N 41°56' E 008°45'0 0.0
2019-Feb-15 11:20N 41°56' E 008°45'0 0.0
2019-Feb-15 10:59N 41°56' E 008°45'0 0.0
2019-Feb-15 10:29N 41°56' E 008°45'0 0.0
2019-Feb-15 09:59N 41°56' E 008°45'0 0.0
2019-Feb-15 08:23N 41°56' E 008°45'0 0.0
2019-Feb-15 07:59N 41°56' E 008°45'0 0.0
2019-Feb-15 07:29N 41°56' E 008°45'0 0.0
2019-Feb-15 06:59N 41°56' E 008°45'0 0.0
2019-Feb-15 06:26N 41°56' E 008°45'0 0.0
2019-Feb-15 05:48N 41°56' E 008°45'0 0.0
2019-Feb-15 05:30N 41°56' E 008°45'3 6.2
2019-Feb-15 05:01N 41°53' E 008°43'816.5
2019-Feb-15 04:31N 41°49' E 008°33'917.3
2019-Feb-15 04:00N 41°53' E 008°22'917.8
2019-Feb-15 03:30N 41°58' E 008°12'917.9
2019-Feb-15 03:01N 42°02' E 008°02'918.0
2019-Feb-15 02:31N 42°06' E 007°51'918.1
2019-Feb-15 02:01N 42°11' E 007°40'918.3
2019-Feb-15 01:31N 42°15' E 007°29'918.3
2019-Feb-15 01:01N 42°20' E 007°19'1018.3
2019-Feb-15 00:27N 42°25' E 007°07'818.3
2019-Feb-15 00:00N 42°29' E 006°57'918.3
2019-Feb-14 23:31N 42°33' E 006°46'1019.2
2019-Feb-14 23:01N 42°38' E 006°35'1019.6
2019-Feb-14 22:31N 42°43' E 006°24'1019.3
2019-Feb-14 22:00N 42°48' E 006°12'1019.1
2019-Feb-14 21:31N 42°52' E 006°01'3719.3
2019-Feb-14 19:36N 43°12' E 005°18'115.7
2019-Feb-14 19:30N 43°14' E 005°18'6 6.3
2019-Feb-14 18:37N 43°19' E 005°22'0 0.0
2019-Feb-14 06:37N 43°19' E 005°22'0 0.0
2019-Feb-14 06:06N 43°19' E 005°22'0 0.0
2019-Feb-14 05:58N 43°19' E 005°22'0 0.4
2019-Feb-14 05:30N 43°19' E 005°22'5 9.7
2019-Feb-14 05:00N 43°14' E 005°18'9517.7
2019-Feb-13 23:37N 42°24' E 007°08'217.4
2019-Feb-13 23:30N 42°23' E 007°11'917.7
2019-Feb-13 22:59N 42°18' E 007°22'918.3
2019-Feb-13 22:30N 42°14' E 007°32'918.1
2019-Feb-13 22:00N 42°10' E 007°43'918.2
2019-Feb-13 21:30N 42°05' E 007°53'918.4
2019-Feb-13 21:00N 42°01' E 008°04'918.3
2019-Feb-13 20:30N 41°56' E 008°15'918.6
2019-Feb-13 20:00N 41°52' E 008°26'917.9
2019-Feb-13 19:30N 41°49' E 008°37'  

Dump ship's entire track history